Latest Weather Observations for Cape Leeuwin

IDW60801

Issued at 10:05 am WST Saturday 19 April 2014 (issued every 30 minutes, with the page automatically refreshed every 10 minutes)

About weather observations | Map of weather stations | Latest weather observations for WA | Other Formats
Station Details ID: 009518 Name: CAPE LEEUWIN Lat: -34.37 Lon: 115.14 Height: 13.0 m
Data from the previous 72 hours. | See also: Recent months at Cape Leeuwin
Date/Time
WST
Temp
°C
App
Temp
°C
Dew
Point
Rel
Hum
%
Delta-T
°C
Wind Press
QNH
hPa
Press
MSL
hPa
Rain
since 9 am
mm
Dir
 
Spd
km/h
Gust
km/h
Spd
kts
Gust
kts
19/10:00am 19.3 16.3 10.6 57 4.7 S 17 22 9 12 1019.7 - 0.0
19/09:30am 19.2 16.0 11.1 59 4.4 S 19 26 10 14 1019.9 - 0.0
19/09:00am 18.8 15.5 11.5 62 4.0 S 20 28 11 15 1020.0 1019.9 0.0
19/08:30am 18.5 15.1 11.1 62 4.0 S 20 26 11 14 1020.0 - 0.0
19/08:00am 18.2 14.5 11.4 64 3.7 S 22 32 12 17 1019.9 - 0.0
19/07:30am 18.1 14.1 11.9 67 3.4 SSW 24 30 13 16 1019.7 - 0.0
19/07:00am 18.0 14.7 11.6 66 3.5 S 20 28 11 15 1019.3 - 0.0
19/06:30am 18.1 14.7 12.5 70 3.1 SSW 22 30 12 16 1019.2 - 0.0
19/06:00am 18.1 14.2 13.3 73 2.7 S 26 33 14 18 1019.2 1019.1 0.0
19/05:30am 18.4 15.3 11.6 64 3.7 S 19 24 10 13 1019.1 - 0.0
19/05:00am 18.0 15.2 11.2 64 3.7 S 17 24 9 13 1018.8 - 0.0
19/04:30am 18.2 15.0 11.4 64 3.7 S 19 22 10 12 1018.8 - 0.0
19/04:00am 18.1 14.6 10.2 60 4.2 S 19 22 10 12 1018.8 - 0.0
19/03:30am 18.1 15.5 11.9 67 3.4 SSE 17 22 9 12 1018.8 - 0.0
19/03:00am 18.2 16.2 12.8 71 3.0 SSE 15 20 8 11 1019.0 1018.9 0.0
19/02:30am 18.0 16.1 13.0 72 2.8 SSE 15 20 8 11 1019.3 - 0.0
19/02:00am 18.0 15.8 13.2 73 2.7 SE 17 20 9 11 1019.3 - 0.0
19/01:30am 17.8 15.6 13.4 75 2.5 SE 17 20 9 11 1019.5 - 0.0
19/01:00am 17.9 15.8 13.7 76 2.4 SE 17 20 9 11 1019.6 - 0.0
19/12:30am 18.0 15.6 12.8 71 2.9 SSE 17 20 9 11 1019.8 - 0.0
19/12:00am 18.0 15.9 13.6 75 2.5 S 17 22 9 12 1020.1 1020.0 0.0
 
Date/Time
WST
Temp
°C
App
Temp
°C
Dew
Point
Rel
Hum
%
Delta-T
°C
Wind Press
QNH
hPa
Press
MSL
hPa
Rain
since 9 am
mm
Dir
 
Spd
km/h
Gust
km/h
Spd
kts
Gust
kts
18/11:30pm 17.9 15.6 12.9 72 2.8 S 17 20 9 11 1020.3 - 0.0
18/11:00pm 18.0 15.8 13.4 74 2.6 S 17 20 9 11 1020.6 - 0.0
18/10:30pm 18.1 15.6 13.5 74 2.6 S 19 22 10 12 1020.8 - 0.0
18/10:00pm 18.2 16.4 13.4 73 2.7 S 15 20 8 11 1020.9 - 0.0
18/09:30pm 18.1 15.8 13.1 72 2.8 S 17 20 9 11 1021.1 - 0.0
18/09:00pm 18.3 15.7 13.3 72 2.8 S 19 24 10 13 1021.1 1021.0 0.0
18/08:30pm 18.6 16.2 13.7 73 2.8 SSW 19 26 10 14 1021.1 - 0.0
18/08:00pm 18.6 16.2 13.7 73 2.8 S 19 24 10 13 1021.0 - 0.0
18/07:30pm 18.6 16.0 13.1 70 3.1 S 19 22 10 12 1021.0 - 0.0
18/07:00pm 18.4 16.1 11.8 65 3.6 S 15 19 8 10 1020.7 - 0.0
18/06:30pm 18.2 15.9 11.8 66 3.5 SSW 15 19 8 10 1020.5 - 0.0
18/06:00pm 18.6 16.4 12.1 66 3.6 SSW 15 19 8 10 1020.2 1020.1 0.0
18/05:30pm 19.4 17.5 11.8 61 4.2 SSW 13 19 7 10 1020.1 - 0.0
18/05:00pm 20.2 18.3 11.7 58 4.7 SSW 13 19 7 10 1020.0 - 0.0
18/04:30pm 20.4 18.5 11.7 57 4.8 SW 13 17 7 9 1019.9 - 0.0
18/04:00pm 20.9 18.4 12.4 58 4.8 WSW 17 20 9 11 1020.0 - 0.0
18/03:30pm 21.1 19.6 15.2 69 3.5 SW 17 22 9 12 1020.2 - 0.0
18/03:00pm 21.2 19.6 15.1 68 3.6 WSW 17 19 9 10 1020.3 1020.2 0.0
18/02:30pm 21.2 19.9 14.7 66 3.8 WSW 15 20 8 11 1020.3 - 0.0
18/02:00pm 20.6 19.2 14.4 67 3.6 WSW 15 19 8 10 1020.4 - 0.0
18/01:30pm 21.1 19.5 15.0 68 3.6 WSW 17 20 9 11 1020.7 - 0.0
18/01:00pm 20.3 19.8 14.8 70 3.2 SW 11 15 6 8 1021.1 - 0.0
18/12:30pm 20.8 20.0 15.0 69 3.4 SW 13 17 7 9 1021.7 - 0.0
18/12:00pm 20.2 20.1 14.9 71 3.1 S 9 13 5 7 1021.9 1021.8 0.0
18/11:30am 20.4 19.7 14.4 68 3.5 E 11 19 6 10 1022.1 - 0.0
18/11:00am 21.2 19.4 14.5 65 3.9 NE 17 24 9 13 1022.4 - 0.0
18/10:30am 20.7 18.9 13.3 62 4.2 NNE 15 22 8 12 1022.5 - 0.0
18/10:00am 20.0 17.3 12.9 63 4.0 NNE 19 28 10 15 1022.6 - 0.0
18/09:30am 18.7 15.3 12.4 67 3.5 NE 22 32 12 17 1022.9 - 0.0
18/09:00am 18.0 14.9 12.2 69 3.2 NE 20 26 11 14 1023.1 1023.0 0.0
18/08:30am 17.4 14.9 12.3 72 2.8 ENE 17 20 9 11 1023.5 - 0.0
18/08:00am 15.8 13.7 12.3 80 1.9 NE 15 19 8 10 1023.6 - 0.0
18/07:30am 15.0 11.8 11.8 81 1.7 NNE 20 26 11 14 1023.4 - 0.0
18/07:00am 14.8 11.6 11.8 82 1.6 NE 20 26 11 14 1023.2 - 0.0
18/06:30am 14.7 11.1 11.9 83 1.5 NE 22 30 12 16 1023.1 - 0.0
18/06:00am 14.9 11.4 12.1 83 1.5 NE 22 30 12 16 1023.3 1023.2 0.0
18/05:30am 14.4 10.4 11.8 84 1.4 NE 24 32 13 17 1023.4 - 0.0
18/05:00am 14.3 11.0 11.7 84 1.4 NE 20 28 11 15 1023.5 - 0.0
18/04:30am 14.6 11.7 12.2 85 1.3 ENE 19 22 10 12 1023.6 - 0.0
18/04:00am 14.8 12.3 12.2 84 1.4 ENE 17 20 9 11 1023.5 - 0.0
18/03:30am 15.4 12.1 12.9 85 1.4 ENE 22 26 12 14 1023.4 - 0.0
18/03:00am 16.3 13.1 13.2 82 1.7 ENE 22 28 12 15 1023.4 1023.3 0.0
18/02:30am 17.1 14.2 13.9 81 1.8 E 22 28 12 15 1023.5 - 0.0
18/02:00am 17.2 13.8 13.8 80 1.9 E 24 32 13 17 1023.6 - 0.0
18/01:30am 17.0 15.0 14.0 82 1.7 ENE 17 24 9 13 1023.7 - 0.0
18/01:00am 17.2 15.9 13.8 80 1.9 ENE 13 26 7 14 1023.9 - 0.0
18/12:30am 17.8 16.1 13.5 76 2.4 ESE 15 20 8 11 1023.8 - 0.0
18/12:00am 17.9 16.3 13.8 77 2.3 ESE 15 19 8 10 1023.9 1023.8 0.0
 
Date/Time
WST
Temp
°C
App
Temp
°C
Dew
Point
Rel
Hum
%
Delta-T
°C
Wind Press
QNH
hPa
Press
MSL
hPa
Rain
since 9 am
mm
Dir
 
Spd
km/h
Gust
km/h
Spd
kts
Gust
kts
17/11:30pm 18.2 15.8 13.8 75 2.5 E 19 20 10 11 1024.3 - 0.0
17/11:00pm 18.2 15.4 11.4 64 3.7 SE 17 20 9 11 1024.5 - 0.0
17/10:30pm 18.3 15.2 11.7 65 3.6 SE 19 26 10 14 1024.6 - 0.0
17/10:00pm 18.1 14.9 11.9 67 3.4 SE 20 26 11 14 1024.6 - 0.0
17/09:30pm 18.1 14.9 11.9 67 3.4 SE 20 28 11 15 1024.5 - 0.0
17/09:00pm 18.2 14.3 12.0 67 3.4 SE 24 28 13 15 1024.3 1024.2 0.0
17/08:30pm 18.3 14.3 11.9 66 3.5 SE 24 30 13 16 1024.4 - 0.0
17/08:00pm 18.3 14.5 12.3 68 3.3 SSE 24 30 13 16 1024.2 - 0.0
17/07:30pm 18.0 13.6 13.0 72 2.8 SSE 28 33 15 18 1024.0 - 0.0
17/07:00pm 17.9 13.6 13.3 74 2.6 SSE 28 35 15 19 1023.7 - 0.0
17/06:30pm 17.8 14.3 13.4 75 2.5 S 24 30 13 16 1023.4 - 0.0
17/06:00pm 18.0 14.7 14.0 77 2.3 S 24 30 13 16 1023.2 1023.1 0.0
17/05:30pm 18.5 14.6 14.5 77 2.3 S 28 35 15 19 1022.8 - 0.0
17/05:00pm 19.2 16.3 12.8 66 3.6 S 20 26 11 14 1022.6 - 0.0
17/04:30pm 19.5 16.6 14.1 71 3.1 S 22 30 12 16 1022.5 - 0.0
17/04:00pm 20.0 17.4 13.7 67 3.6 S 20 26 11 14 1022.5 - 0.0
17/03:30pm 20.1 16.9 14.2 69 3.4 SSW 24 33 13 18 1022.4 - 0.0
17/03:00pm 20.6 18.1 13.4 63 4.1 SW 19 24 10 13 1022.2 1022.1 0.0
17/02:30pm 21.7 19.3 13.9 61 4.5 SSW 19 24 10 13 1022.1 - 0.0
17/02:00pm 22.3 19.4 14.0 59 4.8 SSW 22 28 12 15 1021.9 - 0.0
17/01:30pm 20.5 16.3 12.5 60 4.5 SW 26 30 14 16 1021.8 - 0.0
17/01:00pm 21.2 17.0 12.5 57 4.9 SW 26 33 14 18 1021.9 - 0.0
17/12:30pm 20.8 15.3 12.6 59 4.6 SW 33 39 18 21 1022.1 - 0.0
17/12:00pm 21.0 16.2 12.9 60 4.6 SW 30 35 16 19 1022.4 1022.3 0.0
17/11:30am 20.3 16.0 14.4 69 3.4 SW 30 43 16 23 1022.4 - 0.0
17/11:00am 20.4 16.0 13.0 62 4.2 SW 28 33 15 18 1022.3 - 0.0
17/10:30am 20.4 16.3 12.8 61 4.3 WSW 26 33 14 18 1022.3 - 0.0
17/10:00am 20.7 15.7 13.3 62 4.2 WSW 32 39 17 21 1022.0 - 0.0
17/09:30am 20.7 16.8 14.3 66 3.7 WSW 28 32 15 17 1021.9 - 0.0
17/09:00am 19.6 15.5 13.8 69 3.3 SW 28 32 15 17 1021.8 1021.7 0.4
17/08:30am 19.3 14.8 13.9 71 3.1 SW 30 35 16 19 1021.6 - 0.4
17/08:00am 19.4 15.7 14.9 75 2.6 WSW 28 35 15 19 1021.2 - 0.4
17/07:30am 19.0 14.7 14.5 75 2.6 SW 30 39 16 21 1020.8 - 0.4
17/07:00am 18.6 13.5 14.8 78 2.2 WSW 35 41 19 22 1020.5 - 0.2
17/06:30am 18.4 13.3 15.9 85 1.5 WSW 37 44 20 24 1020.2 - 0.2
17/06:00am 18.8 15.1 15.0 78 2.2 WSW 28 37 15 20 1019.9 1019.8 0.2
17/05:30am 18.8 14.9 15.6 82 1.9 WSW 30 37 16 20 1019.7 - 0.2
17/05:00am 18.3 16.5 15.9 86 1.4 W 20 26 11 14 1019.5 - 0.2
17/04:30am 18.0 14.1 15.6 86 1.4 W 30 37 16 20 1019.4 - 0.2
17/04:15am 18.0 12.1 15.8 87 1.3 W 41 46 22 25 1019.2 - 0.2
17/04:00am 18.3 12.8 15.8 85 1.5 WSW 39 44 21 24 1019.1 - 0.2
17/03:31am 19.3 15.1 16.3 83 1.8 W 33 54 18 29 1018.9 - 0.0
17/03:30am 19.4 15.1 16.0 81 2.0 W 33 46 18 25 1019.0 - 0.0
17/03:00am 19.4 14.5 13.6 69 3.3 W 32 35 17 19 1019.2 1019.1 0.0
17/02:30am 19.5 14.6 13.7 69 3.3 W 32 39 17 21 1019.4 - 0.0
17/02:00am 19.5 15.2 13.3 67 3.5 W 28 32 15 17 1019.4 - 0.0
17/01:30am 19.3 15.3 12.9 66 3.6 W 26 33 14 18 1019.5 - 0.0
17/01:00am 19.6 14.1 12.4 63 4.0 W 33 43 18 23 1019.5 - 0.0
17/12:30am 19.4 14.3 13.0 66 3.6 W 32 39 17 21 1019.6 - 0.0
17/12:00am 19.5 14.2 12.5 64 3.9 W 32 35 17 19 1019.6 1019.5 0.0
 
Date/Time
WST
Temp
°C
App
Temp
°C
Dew
Point
Rel
Hum
%
Delta-T
°C
Wind Press
QNH
hPa
Press
MSL
hPa
Rain
since 9 am
mm
Dir
 
Spd
km/h
Gust
km/h
Spd
kts
Gust
kts
16/11:30pm 19.4 14.2 13.4 68 3.4 W 33 41 18 22 1019.7 - 0.0
16/11:00pm 19.2 14.0 13.4 69 3.3 W 33 39 18 21 1019.9 - 0.0
16/10:30pm 19.2 14.6 14.5 74 2.7 WSW 32 39 17 21 1020.1 - 0.0
16/10:00pm 19.6 15.6 13.0 65 3.7 W 26 32 14 17 1020.1 - 0.0
16/09:30pm 19.4 14.2 12.8 65 3.7 W 32 39 17 21 1020.2 - 0.0
16/09:00pm 19.5 15.2 13.3 67 3.5 W 28 35 15 19 1020.2 1020.1 0.0
16/08:30pm 19.2 15.0 13.6 70 3.2 W 28 35 15 19 1020.2 - 0.0
16/08:00pm 19.2 15.6 13.2 68 3.4 W 24 32 13 17 1020.2 - 0.0
16/07:30pm 18.5 16.3 13.2 71 3.0 W 17 28 9 15 1020.3 - 0.0
16/07:00pm 19.2 13.5 14.2 73 2.9 W 37 41 20 22 1020.1 - 0.0
16/06:30pm 19.3 14.6 12.1 63 4.0 W 28 35 15 19 1020.0 - 0.0
16/06:00pm 19.4 14.8 12.4 64 3.9 W 28 39 15 21 1020.0 1019.9 0.0
16/05:30pm 19.4 15.2 12.4 64 3.9 W 26 32 14 17 1020.0 - 0.0
16/05:00pm 19.4 14.3 12.0 62 4.1 WNW 30 35 16 19 1020.0 - 0.0
16/04:30pm 19.2 15.8 12.4 64 3.8 WNW 22 28 12 15 1020.2 - 0.0
16/04:00pm 19.5 16.3 13.1 66 3.6 WNW 22 28 12 15 1020.4 - 0.0
16/03:30pm 19.5 16.3 13.1 66 3.6 W 22 26 12 14 1020.6 - 0.0
16/03:00pm 20.1 15.9 12.4 61 4.3 WNW 26 30 14 16 1020.8 1020.7 0.0
16/02:30pm 20.5 16.2 12.1 58 4.7 WNW 26 32 14 17 1020.8 - 0.0
16/02:00pm 19.7 16.8 12.8 64 3.9 W 20 28 11 15 1021.1 - 0.0
16/01:30pm 20.0 16.9 12.1 60 4.4 WNW 20 24 11 13 1021.2 - 0.0
16/01:00pm 19.8 16.5 11.6 59 4.5 WNW 20 26 11 14 1021.7 - 0.0
16/12:30pm 20.0 17.7 11.9 59 4.5 WNW 15 20 8 11 1022.1 - 0.0
16/12:00pm 19.5 16.5 11.9 61 4.2 NW 19 24 10 13 1022.7 1022.6 0.0
16/11:30am 19.6 17.4 10.9 57 4.7 WNW 13 20 7 11 1023.0 - 0.0
16/11:00am 19.4 17.6 10.7 57 4.7 W 11 17 6 9 1023.2 - 0.0
16/10:30am 19.0 16.7 10.6 58 4.5 WNW 13 17 7 9 1023.3 - 0.0

Other Formats:

Comma delimited format used in spreadsheet applications
http://www.bom.gov.au/fwo/IDW60801/IDW60801.94601.axf

JavaScript Object Notation format (JSON) in row-major order
http://www.bom.gov.au/fwo/IDW60801/IDW60801.94601.json